AIC186 CYVR-VIDP
Flight info
| Callsign | AIC186 |
|---|---|
| Flight time | N/A |
| Altitude | 29000 |
| Route | FASBO DCT GABAL DCT HOWSE DCT YQU J528 YSM/N0492F310 DCT 65N00 DCT 68N090W 70N080W/M084F310 DCT INGUM DCT 7240N/M084F330 DCT H6922 DCT 6920N DCT 6610N DCT IPTON/N0483F330 DCT KOVIK/N0480F350 DCT SONAL M602 BINKA DCT LENOV DCT KENIN DCT DINRO N743 UDROS UM859 KARDE UL851 TBN UR317 REBLO M11 MATAL/N0486F370 M11 LUSAL N701 LARGI B701 TUGTA A909 NINOP B475 DAVET P173 TAPIS L509 ASARI A466 ELKUX ELKUX7E |
| Aircraft | B77W/H-SDE1E2E3FGHIJ2J3J4J5M1RWXY/LB1D1 |
Departure
| Time | 2026-05-06 20:03 |
|---|---|
| Airport | Vancouver International Airport (CYVR) |
Arrival
| Time | N/A |
|---|---|
| Airport | Indira Gandhi International Airport (VIDP) |
| Time | Latitude | Longitude | Altitude | Speed | Heading |
|---|---|---|---|---|---|
| 2026-05-06 19:14 | 49.19970 | -123.18375 | 17 ft | 0 kts | 190° |
| 2026-05-06 19:51 | 49.19980 | -123.18373 | 17 ft | 2 kts | 190° |
| 2026-05-06 19:51 | 49.19994 | -123.18368 | 17 ft | 2 kts | 190° |
| 2026-05-06 19:51 | 49.20009 | -123.18364 | 17 ft | 2 kts | 208° |
| 2026-05-06 19:51 | 49.20020 | -123.18349 | 17 ft | 2 kts | 233° |
| 2026-05-06 19:52 | 49.20027 | -123.18330 | 17 ft | 2 kts | 254° |
| 2026-05-06 19:52 | 49.20029 | -123.18308 | 17 ft | 1 kts | 276° |
| 2026-05-06 19:52 | 49.20029 | -123.18298 | 17 ft | 0 kts | 281° |
| 2026-05-06 19:54 | 49.20031 | -123.18313 | 17 ft | 3 kts | 281° |
| 2026-05-06 19:55 | 49.20037 | -123.18372 | 17 ft | 7 kts | 280° |
| 2026-05-06 19:55 | 49.20037 | -123.18470 | 17 ft | 10 kts | 246° |
| 2026-05-06 19:55 | 49.19987 | -123.18526 | 17 ft | 8 kts | 197° |
| 2026-05-06 19:55 | 49.19938 | -123.18539 | 17 ft | 6 kts | 189° |
| 2026-05-06 19:56 | 49.19888 | -123.18551 | 17 ft | 7 kts | 189° |
| 2026-05-06 19:56 | 49.19831 | -123.18566 | 17 ft | 7 kts | 189° |
| 2026-05-06 19:56 | 49.19776 | -123.18585 | 17 ft | 8 kts | 202° |
| 2026-05-06 19:56 | 49.19717 | -123.18644 | 17 ft | 11 kts | 214° |
| 2026-05-06 19:57 | 49.19634 | -123.18691 | 17 ft | 13 kts | 194° |
| 2026-05-06 19:57 | 49.19534 | -123.18720 | 17 ft | 15 kts | 189° |
| 2026-05-06 19:57 | 49.19445 | -123.18741 | 17 ft | 8 kts | 192° |
| 2026-05-06 19:57 | 49.19400 | -123.18788 | 17 ft | 8 kts | 238° |
| 2026-05-06 19:58 | 49.19381 | -123.18874 | 17 ft | 9 kts | 256° |
| 2026-05-06 19:58 | 49.19364 | -123.18993 | 17 ft | 12 kts | 258° |
| 2026-05-06 19:58 | 49.19346 | -123.19135 | 17 ft | 14 kts | 260° |
| 2026-05-06 19:58 | 49.19325 | -123.19302 | 17 ft | 16 kts | 259° |
| 2026-05-06 19:59 | 49.19302 | -123.19484 | 17 ft | 18 kts | 259° |
| 2026-05-06 19:59 | 49.19277 | -123.19682 | 17 ft | 19 kts | 259° |
| 2026-05-06 19:59 | 49.19250 | -123.19897 | 17 ft | 21 kts | 259° |
| 2026-05-06 19:59 | 49.19223 | -123.20121 | 17 ft | 20 kts | 260° |
| 2026-05-06 20:00 | 49.19198 | -123.20321 | 17 ft | 17 kts | 259° |
| 2026-05-06 20:00 | 49.19184 | -123.20490 | 17 ft | 14 kts | 271° |
| 2026-05-06 20:00 | 49.19196 | -123.20634 | 17 ft | 12 kts | 279° |
| 2026-05-06 20:00 | 49.19201 | -123.20752 | 17 ft | 10 kts | 258° |
| 2026-05-06 20:01 | 49.19160 | -123.20818 | 17 ft | 8 kts | 202° |
| 2026-05-06 20:01 | 49.19122 | -123.20834 | 17 ft | 0 kts | 193° |
| 2026-05-06 20:01 | 49.19121 | -123.20834 | 17 ft | 0 kts | 193° |
| 2026-05-06 20:01 | 49.19096 | -123.20843 | 17 ft | 6 kts | 189° |
| 2026-05-06 20:02 | 49.19036 | -123.20829 | 17 ft | 11 kts | 147° |
| 2026-05-06 20:02 | 49.19003 | -123.20734 | 17 ft | 9 kts | 102° |
| 2026-05-06 20:02 | 49.18979 | -123.20528 | 17 ft | 40 kts | 100° |
| 2026-05-06 20:02 | 49.18893 | -123.19772 | 17 ft | 104 kts | 100° |
| 2026-05-06 20:03 | 49.18739 | -123.18402 | 17 ft | 161 kts | 100° |
| 2026-05-06 20:03 | 49.18519 | -123.16449 | 103 ft | 205 kts | 99° |
| 2026-05-06 20:03 | 49.18309 | -123.14289 | 777 ft | 210 kts | 97° |
| 2026-05-06 20:03 | 49.18153 | -123.12046 | 1519 ft | 213 kts | 97° |
| 2026-05-06 20:04 | 49.17964 | -123.09747 | 1767 ft | 230 kts | 100° |
| 2026-05-06 20:04 | 49.17710 | -123.07256 | 2051 ft | 246 kts | 100° |
| 2026-05-06 20:04 | 49.17508 | -123.04562 | 2395 ft | 261 kts | 87° |
| 2026-05-06 20:04 | 49.18029 | -123.01879 | 2773 ft | 271 kts | 56° |
| 2026-05-06 20:05 | 49.19393 | -122.99954 | 3348 ft | 273 kts | 25° |
| 2026-05-06 20:05 | 49.21226 | -122.99334 | 3898 ft | 274 kts | 354° |
| 2026-05-06 20:05 | 49.23008 | -123.00219 | 4409 ft | 275 kts | 322° |
| 2026-05-06 20:05 | 49.24290 | -123.02384 | 4972 ft | 276 kts | 300° |
| 2026-05-06 20:06 | 49.25246 | -123.04894 | 5623 ft | 276 kts | 298° |
| 2026-05-06 20:06 | 49.26179 | -123.07426 | 6301 ft | 275 kts | 298° |
| 2026-05-06 20:06 | 49.27123 | -123.09998 | 6948 ft | 276 kts | 298° |
| 2026-05-06 20:06 | 49.28042 | -123.12502 | 7568 ft | 277 kts | 298° |
| 2026-05-06 20:07 | 49.28991 | -123.15090 | 8190 ft | 278 kts | 298° |
| 2026-05-06 20:07 | 49.29937 | -123.17676 | 8777 ft | 280 kts | 298° |
| 2026-05-06 20:07 | 49.30898 | -123.20303 | 9340 ft | 282 kts | 298° |
| 2026-05-06 20:07 | 49.31853 | -123.22915 | 9899 ft | 284 kts | 297° |
| 2026-05-06 20:08 | 49.32827 | -123.25587 | 10289 ft | 293 kts | 298° |
| 2026-05-06 20:08 | 49.33995 | -123.28240 | 10480 ft | 310 kts | 308° |
| 2026-05-06 20:08 | 49.35546 | -123.30640 | 10663 ft | 328 kts | 319° |
| 2026-05-06 20:08 | 49.37487 | -123.32636 | 10851 ft | 347 kts | 330° |
| 2026-05-06 20:09 | 49.39764 | -123.34030 | 11091 ft | 365 kts | 342° |
| 2026-05-06 20:09 | 49.42336 | -123.34646 | 11397 ft | 382 kts | 355° |
| 2026-05-06 20:09 | 49.45031 | -123.34289 | 11889 ft | 395 kts | 9° |
| 2026-05-06 20:09 | 49.47668 | -123.32957 | 12493 ft | 403 kts | 18° |
| 2026-05-06 20:10 | 49.50265 | -123.31345 | 13108 ft | 407 kts | 18° |
| 2026-05-06 20:10 | 49.52893 | -123.29753 | 13744 ft | 409 kts | 17° |
| 2026-05-06 20:10 | 49.55581 | -123.28166 | 14353 ft | 413 kts | 17° |
| 2026-05-06 20:10 | 49.58263 | -123.26609 | 14934 ft | 417 kts | 16° |
| 2026-05-06 20:11 | 49.61001 | -123.25039 | 15525 ft | 420 kts | 16° |
| 2026-05-06 20:11 | 49.63732 | -123.23484 | 16110 ft | 424 kts | 15° |
| 2026-05-06 20:11 | 49.66515 | -123.21907 | 16693 ft | 426 kts | 15° |
| 2026-05-06 20:11 | 49.69328 | -123.20318 | 17223 ft | 430 kts | 15° |
| 2026-05-06 20:12 | 49.72146 | -123.18729 | 17766 ft | 434 kts | 15° |
| 2026-05-06 20:12 | 49.74991 | -123.17125 | 18275 ft | 437 kts | 15° |
| 2026-05-06 20:12 | 49.77829 | -123.15526 | 18779 ft | 441 kts | 15° |
| 2026-05-06 20:12 | 49.80718 | -123.13896 | 19370 ft | 441 kts | 15° |
| 2026-05-06 20:13 | 49.83599 | -123.12270 | 19942 ft | 443 kts | 14° |
| 2026-05-06 20:13 | 49.86527 | -123.10617 | 20417 ft | 447 kts | 14° |
| 2026-05-06 20:13 | 49.89415 | -123.08986 | 20860 ft | 451 kts | 15° |
| 2026-05-06 20:13 | 49.92386 | -123.07305 | 21329 ft | 454 kts | 14° |
| 2026-05-06 20:14 | 49.95388 | -123.05605 | 21815 ft | 456 kts | 14° |
| 2026-05-06 20:14 | 49.98342 | -123.03928 | 22320 ft | 457 kts | 14° |
| 2026-05-06 20:14 | 50.01349 | -123.02220 | 22759 ft | 460 kts | 14° |
| 2026-05-06 20:14 | 50.04341 | -123.00396 | 23164 ft | 465 kts | 16° |
| 2026-05-06 20:15 | 50.07313 | -122.98529 | 23626 ft | 467 kts | 15° |
| 2026-05-06 20:15 | 50.10309 | -122.96646 | 24103 ft | 468 kts | 15° |
| 2026-05-06 20:15 | 50.13385 | -122.94714 | 24537 ft | 471 kts | 15° |
| 2026-05-06 20:15 | 50.16399 | -122.92822 | 24891 ft | 475 kts | 15° |
| 2026-05-06 20:16 | 50.19500 | -122.90875 | 25278 ft | 479 kts | 15° |
| 2026-05-06 20:16 | 50.22586 | -122.88936 | 25658 ft | 482 kts | 15° |
| 2026-05-06 20:16 | 50.25658 | -122.87003 | 26128 ft | 483 kts | 15° |
| 2026-05-06 20:16 | 50.28804 | -122.85020 | 26606 ft | 483 kts | 15° |
| 2026-05-06 20:17 | 50.31910 | -122.83063 | 26981 ft | 486 kts | 15° |
| 2026-05-06 20:17 | 50.35085 | -122.81060 | 27320 ft | 490 kts | 15° |
| 2026-05-06 20:17 | 50.38224 | -122.79076 | 27728 ft | 491 kts | 15° |
| 2026-05-06 20:17 | 50.41394 | -122.77070 | 28091 ft | 494 kts | 14° |
| 2026-05-06 20:18 | 50.44530 | -122.75083 | 28469 ft | 496 kts | 14° |
| 2026-05-06 20:18 | 50.47756 | -122.73035 | 28942 ft | 495 kts | 14° |
| 2026-05-06 20:18 | 50.54156 | -122.68964 | 29053 ft | 493 kts | 14° |
| 2026-05-06 20:19 | 50.60446 | -122.64950 | 29056 ft | 490 kts | 14° |
| 2026-05-06 20:19 | 50.66725 | -122.60934 | 29058 ft | 489 kts | 14° |
| 2026-05-06 20:20 | 50.73012 | -122.56902 | 29046 ft | 493 kts | 14° |
| 2026-05-06 20:20 | 50.79362 | -122.52817 | 29045 ft | 490 kts | 14° |
| 2026-05-06 20:21 | 50.85664 | -122.48750 | 29036 ft | 488 kts | 14° |
| 2026-05-06 20:21 | 50.91948 | -122.44684 | 29024 ft | 488 kts | 14° |
| 2026-05-06 20:22 | 50.98237 | -122.40602 | 29025 ft | 488 kts | 14° |
| 2026-05-06 20:22 | 51.04487 | -122.36533 | 29023 ft | 487 kts | 14° |
| 2026-05-06 20:23 | 51.10748 | -122.32447 | 28999 ft | 489 kts | 14° |
| 2026-05-06 20:23 | 51.17026 | -122.28338 | 28996 ft | 487 kts | 15° |
| 2026-05-06 20:24 | 51.23333 | -122.24196 | 28980 ft | 488 kts | 15° |
| 2026-05-06 20:24 | 51.29608 | -122.20064 | 28960 ft | 488 kts | 15° |
| 2026-05-06 20:25 | 51.35839 | -122.15949 | 28962 ft | 488 kts | 16° |
| 2026-05-06 20:25 | 51.42092 | -122.11806 | 28955 ft | 488 kts | 16° |
| 2026-05-06 20:26 | 51.48344 | -122.07652 | 28947 ft | 486 kts | 17° |
| 2026-05-06 20:26 | 51.54599 | -122.03483 | 28936 ft | 486 kts | 17° |
| 2026-05-06 20:27 | 51.60843 | -121.99310 | 28935 ft | 488 kts | 17° |
| 2026-05-06 20:27 | 51.67102 | -121.95113 | 28918 ft | 486 kts | 17° |
| 2026-05-06 20:28 | 51.73330 | -121.90926 | 28918 ft | 487 kts | 17° |
| 2026-05-06 20:28 | 51.79588 | -121.86706 | 28905 ft | 487 kts | 18° |
| 2026-05-06 20:29 | 51.85820 | -121.82489 | 28889 ft | 487 kts | 18° |
| 2026-05-06 20:29 | 51.92065 | -121.78252 | 28880 ft | 487 kts | 18° |
| 2026-05-06 20:30 | 52.01442 | -121.71867 | 28900 ft | 489 kts | 18° |
| 2026-05-06 20:31 | 52.07700 | -121.67587 | 28897 ft | 489 kts | 18° |
| 2026-05-06 20:31 | 52.13971 | -121.63287 | 28911 ft | 490 kts | 19° |
| 2026-05-06 20:32 | 52.20235 | -121.58978 | 28906 ft | 489 kts | 18° |
| 2026-05-06 20:32 | 52.26487 | -121.54665 | 28911 ft | 489 kts | 19° |
| 2026-05-06 20:33 | 52.32750 | -121.50329 | 28914 ft | 490 kts | 19° |
| 2026-05-06 20:33 | 52.39005 | -121.45985 | 28916 ft | 489 kts | 19° |
| 2026-05-06 20:34 | 52.45306 | -121.41598 | 28917 ft | 491 kts | 19° |
| 2026-05-06 20:34 | 52.51537 | -121.37245 | 28914 ft | 490 kts | 19° |
| 2026-05-06 20:35 | 52.57821 | -121.32842 | 28923 ft | 491 kts | 20° |
| 2026-05-06 20:35 | 52.64057 | -121.28457 | 28942 ft | 490 kts | 20° |
| 2026-05-06 20:36 | 52.70348 | -121.24022 | 28957 ft | 491 kts | 20° |
| 2026-05-06 20:36 | 52.76593 | -121.19604 | 28968 ft | 492 kts | 20° |
| 2026-05-06 20:37 | 52.82891 | -121.15135 | 28972 ft | 492 kts | 20° |
| 2026-05-06 20:37 | 52.89181 | -121.10657 | 28971 ft | 492 kts | 20° |
| 2026-05-06 20:38 | 52.95424 | -121.06198 | 28968 ft | 491 kts | 20° |
| 2026-05-06 20:38 | 53.01693 | -121.01708 | 28974 ft | 492 kts | 20° |
| 2026-05-06 20:39 | 53.07957 | -120.97206 | 28969 ft | 492 kts | 20° |
| 2026-05-06 20:39 | 53.14233 | -120.92681 | 28964 ft | 492 kts | 20° |
| 2026-05-06 20:40 | 53.20528 | -120.88129 | 28968 ft | 494 kts | 20° |
| 2026-05-06 20:40 | 53.26825 | -120.83559 | 28964 ft | 491 kts | 20° |
| 2026-05-06 20:41 | 53.33067 | -120.79015 | 28965 ft | 493 kts | 20° |
| 2026-05-06 20:41 | 53.39325 | -120.74445 | 28953 ft | 491 kts | 20° |
| 2026-05-06 20:42 | 53.45589 | -120.69855 | 28948 ft | 491 kts | 20° |
| 2026-05-06 20:42 | 53.51830 | -120.65268 | 28941 ft | 490 kts | 20° |
| 2026-05-06 20:43 | 53.58049 | -120.60682 | 28942 ft | 492 kts | 21° |
| 2026-05-06 20:43 | 53.64320 | -120.56043 | 28937 ft | 491 kts | 21° |
| 2026-05-06 20:44 | 53.70591 | -120.51389 | 28939 ft | 492 kts | 21° |
| 2026-05-06 20:44 | 53.76849 | -120.46729 | 28943 ft | 491 kts | 21° |
| 2026-05-06 20:45 | 53.83080 | -120.42075 | 28941 ft | 491 kts | 21° |
| 2026-05-06 20:45 | 53.89314 | -120.37402 | 28939 ft | 492 kts | 21° |
| 2026-05-06 20:46 | 53.95536 | -120.32724 | 28927 ft | 491 kts | 22° |
| 2026-05-06 20:46 | 54.01797 | -120.27999 | 28925 ft | 492 kts | 22° |
| 2026-05-06 20:47 | 54.08004 | -120.23301 | 28925 ft | 492 kts | 22° |
| 2026-05-06 20:47 | 54.14285 | -120.18529 | 28920 ft | 492 kts | 22° |
| 2026-05-06 20:48 | 54.20189 | -120.12690 | 28918 ft | 494 kts | 30° |
| 2026-05-06 20:48 | 54.25986 | -120.06351 | 28925 ft | 496 kts | 30° |
| 2026-05-06 20:49 | 54.31775 | -119.99984 | 28912 ft | 496 kts | 31° |
| 2026-05-06 20:49 | 54.37552 | -119.93600 | 28915 ft | 495 kts | 31° |
| 2026-05-06 20:50 | 54.43311 | -119.87213 | 28901 ft | 494 kts | 31° |
| 2026-05-06 20:50 | 54.49057 | -119.80817 | 28894 ft | 495 kts | 31° |
| 2026-05-06 20:51 | 54.54824 | -119.74374 | 28886 ft | 495 kts | 31° |
| 2026-05-06 20:51 | 54.60581 | -119.67920 | 28864 ft | 495 kts | 31° |
| 2026-05-06 20:52 | 54.66372 | -119.61404 | 28874 ft | 497 kts | 31° |
| 2026-05-06 20:52 | 54.72140 | -119.54892 | 28856 ft | 495 kts | 31° |
| 2026-05-06 20:53 | 54.77880 | -119.48390 | 28841 ft | 496 kts | 31° |
| 2026-05-06 20:53 | 54.83612 | -119.41874 | 28835 ft | 496 kts | 31° |